createdAt,value
2023-03-06T00:02:53.900Z,99099.03
2023-03-06T00:05:57.551Z,99089.94
2023-03-06T00:08:59.713Z,99092.53
2023-03-06T00:12:01.151Z,99093.22
2023-03-06T00:15:05.483Z,99091.88
2023-03-06T00:18:07.244Z,99092.44
2023-03-06T00:21:08.918Z,99095.47
2023-03-06T00:24:10.323Z,99104.44
2023-03-06T00:27:11.840Z,99106.09
2023-03-06T00:30:15.959Z,99094.97
2023-03-06T00:33:17.341Z,99097.31
2023-03-06T00:36:18.859Z,99098.66
2023-03-06T00:39:20.486Z,99092.56
2023-03-06T00:42:22.079Z,99090.28
2023-03-06T00:45:23.632Z,99089.78
2023-03-06T00:48:25.072Z,99094.94
2023-03-06T00:51:26.847Z,99092.88
2023-03-06T00:54:28.312Z,99082.97
2023-03-06T00:57:29.872Z,99090.34
2023-03-06T01:00:32.093Z,99083.47
2023-03-06T01:03:33.841Z,99087.84
2023-03-06T01:06:35.650Z,99080.41
2023-03-06T01:09:38.085Z,99076.50
2023-03-06T01:12:39.596Z,99071.78
2023-03-06T01:15:41.197Z,99064.88
2023-03-06T01:18:42.817Z,99055.53
2023-03-06T01:21:44.614Z,99058.25
2023-03-06T01:24:46.068Z,99054.69
2023-03-06T01:27:48.689Z,99044.72
2023-03-06T01:30:51.112Z,99035.22
2023-03-06T01:33:53.097Z,99038.84
2023-03-06T01:36:54.538Z,99035.66
2023-03-06T01:39:56.305Z,99038.44
2023-03-06T01:42:57.760Z,99026.69
2023-03-06T01:46:41.890Z,99022.16
2023-03-06T01:49:43.528Z,99023.06
2023-03-06T01:52:52.702Z,99018.59
2023-03-06T01:55:55.053Z,99022.28
2023-03-06T01:58:58.092Z,99013.31
2023-03-06T02:02:01.939Z,99006.75
2023-03-06T02:05:05.025Z,99010.72
2023-03-06T02:08:07.602Z,99005.47
2023-03-06T02:11:14.171Z,99004.06
2023-03-06T02:14:17.188Z,99000.47
2023-03-06T02:17:21.636Z,98999.84
2023-03-06T02:20:32.338Z,98989.69
2023-03-06T02:23:47.878Z,98982.22
2023-03-06T02:26:50.164Z,98983.53
2023-03-06T02:29:51.651Z,98982.66
2023-03-06T02:32:53.279Z,98980.53
2023-03-06T02:35:59.080Z,98966.41
2023-03-06T02:39:01.625Z,98967.56
2023-03-06T02:42:03.034Z,98970.41
2023-03-06T02:45:11.022Z,98971.53
2023-03-06T02:48:14.559Z,98965.09
2023-03-06T02:51:16.061Z,98958.59
2023-03-06T02:54:18.418Z,98961.28
2023-03-06T02:57:20.319Z,98961.00
2023-03-06T03:00:22.145Z,98954.59
2023-03-06T03:03:23.874Z,98956.75
2023-03-06T03:06:27.564Z,98948.09
2023-03-06T03:09:29.345Z,98949.56
2023-03-06T03:12:32.120Z,98935.59
2023-03-06T03:15:34.330Z,98934.72
2023-03-06T03:18:36.146Z,98937.38
2023-03-06T03:21:38.886Z,98931.63
2023-03-06T03:24:40.532Z,98942.97
2023-03-06T03:27:41.963Z,98941.41
2023-03-06T03:30:44.421Z,98934.28
2023-03-06T03:33:47.209Z,98943.75
2023-03-06T03:36:49.189Z,98936.28
2023-03-06T03:39:51.341Z,98925.59
2023-03-06T03:42:52.907Z,98925.81
2023-03-06T03:45:55.485Z,98922.69
2023-03-06T03:48:58.487Z,98929.97
2023-03-06T03:52:01.075Z,98918.09
2023-03-06T03:55:06.347Z,98925.38
2023-03-06T03:58:07.852Z,98923.22
2023-03-06T04:01:09.427Z,98926.44
2023-03-06T04:04:11.808Z,98925.13
2023-03-06T04:07:14.502Z,98913.81
2023-03-06T04:10:16.647Z,98914.63
2023-03-06T04:13:20.902Z,98915.00
2023-03-06T04:16:23.230Z,98909.00
2023-03-06T04:19:25.855Z,98906.53
2023-03-06T04:22:28.151Z,98901.94
2023-03-06T04:25:29.996Z,98908.81
2023-03-06T04:28:33.041Z,98904.47
2023-03-06T04:31:34.725Z,98897.50
2023-03-06T04:34:36.448Z,98904.53
2023-03-06T04:37:37.899Z,98899.53
2023-03-06T04:40:40.237Z,98901.63
2023-03-06T04:43:41.843Z,98896.75
2023-03-06T04:46:43.276Z,98900.56
2023-03-06T04:49:44.664Z,98906.16
2023-03-06T04:52:46.306Z,98902.31
2023-03-06T04:55:47.766Z,98908.03
2023-03-06T04:58:49.302Z,98913.31
2023-03-06T05:01:51.103Z,98906.22
2023-03-06T05:04:52.525Z,98907.53
2023-03-06T05:07:54.346Z,98913.00
2023-03-06T05:10:58.269Z,98903.22
2023-03-06T05:14:00.458Z,98907.50
2023-03-06T05:17:01.871Z,98901.44
2023-03-06T05:20:06.165Z,98896.50
2023-03-06T05:23:07.601Z,98899.34
2023-03-06T05:26:11.275Z,98890.63
2023-03-06T05:29:12.840Z,98885.75
2023-03-06T05:32:16.800Z,98892.31
2023-03-06T05:35:21.141Z,98890.44
2023-03-06T05:38:23.096Z,98887.53
2023-03-06T05:41:24.536Z,98889.44
2023-03-06T05:44:31.166Z,98885.81
2023-03-06T05:47:32.953Z,98888.88
2023-03-06T05:50:34.555Z,98890.31
2023-03-06T05:53:35.975Z,98881.94
2023-03-06T05:56:37.383Z,98877.06
2023-03-06T05:59:38.757Z,98878.88
2023-03-06T06:02:41.165Z,98883.81
2023-03-06T06:05:42.528Z,98890.56
2023-03-06T06:08:44.195Z,98894.28
2023-03-06T06:11:45.616Z,98893.09
2023-03-06T06:14:47.188Z,98895.81
2023-03-06T06:17:48.627Z,98891.09
2023-03-06T06:20:50.058Z,98883.50
2023-03-06T06:23:51.531Z,98886.91
2023-03-06T06:26:54.789Z,98892.41
2023-03-06T06:29:56.215Z,98890.13
2023-03-06T06:32:57.828Z,98891.47
2023-03-06T06:35:59.274Z,98890.78
2023-03-06T06:39:00.751Z,98906.03
2023-03-06T06:42:26.555Z,98895.06
2023-03-06T06:45:25.569Z,98901.38
2023-03-06T06:48:26.963Z,98907.69
2023-03-06T06:51:32.544Z,98908.72
2023-03-06T06:54:34.715Z,98910.63
2023-03-06T06:57:36.173Z,98916.97
2023-03-06T07:00:37.647Z,98918.41
2023-03-06T07:03:40.402Z,98926.56
2023-03-06T07:06:42.746Z,98924.53
2023-03-06T07:09:44.269Z,98928.72
2023-03-06T07:12:45.686Z,98930.13
2023-03-06T07:15:47.344Z,98929.22
2023-03-06T07:18:48.912Z,98934.44
2023-03-06T07:21:50.962Z,98933.09
2023-03-06T07:24:52.393Z,98934.22
2023-03-06T07:27:54.766Z,98938.19
2023-03-06T07:30:56.169Z,98942.25
2023-03-06T07:33:57.663Z,98935.97
2023-03-06T07:36:59.079Z,98935.91
2023-03-06T07:40:00.461Z,98934.91
2023-03-06T07:43:18.400Z,98948.66
2023-03-06T07:46:24.402Z,98936.38
2023-03-06T07:49:25.797Z,98937.84
2023-03-06T07:52:27.225Z,98943.94
2023-03-06T07:55:28.677Z,98943.16
2023-03-06T07:58:30.084Z,98937.34
2023-03-06T08:01:31.770Z,98949.59
2023-03-06T08:04:34.305Z,98944.06
2023-03-06T08:07:35.609Z,98942.56
2023-03-06T08:10:37.367Z,98939.13
2023-03-06T08:13:39.944Z,98943.31
2023-03-06T08:16:41.475Z,98940.53
2023-03-06T08:19:42.926Z,98943.53
2023-03-06T08:22:45.503Z,98941.47
2023-03-06T08:25:55.743Z,98945.72
2023-03-06T08:28:59.549Z,98940.34
2023-03-06T08:32:01.116Z,98952.56
2023-03-06T08:35:06.593Z,98939.84
2023-03-06T08:38:08.001Z,98940.00
2023-03-06T08:41:09.713Z,98939.28
2023-03-06T08:44:11.611Z,98945.44
2023-03-06T08:47:13.119Z,98944.00
2023-03-06T08:50:14.725Z,98951.28
2023-03-06T08:53:16.198Z,98945.34
2023-03-06T08:56:23.223Z,98941.16
2023-03-06T08:59:25.016Z,98945.78
2023-03-06T09:02:26.526Z,98952.13
2023-03-06T09:05:28.257Z,98950.44
2023-03-06T09:08:29.866Z,98945.19
2023-03-06T09:11:31.950Z,98958.03
2023-03-06T09:14:33.415Z,98961.28
2023-03-06T09:17:34.943Z,98967.84
2023-03-06T09:20:36.450Z,98964.88
2023-03-06T09:23:39.458Z,98964.72
2023-03-06T09:26:45.980Z,98968.53
2023-03-06T09:29:48.569Z,98958.31
2023-03-06T09:32:50.002Z,98970.53
2023-03-06T09:35:56.643Z,98972.84
2023-03-06T09:38:58.079Z,98971.19
2023-03-06T09:41:59.674Z,98965.72
2023-03-06T09:45:02.760Z,98966.00
2023-03-06T09:48:13.302Z,98965.44
2023-03-06T09:51:18.692Z,98966.53
2023-03-06T09:54:43.449Z,98967.78
2023-03-06T09:57:51.160Z,98967.19
2023-03-06T10:00:54.302Z,98970.31
2023-03-06T10:04:04.923Z,98975.25
2023-03-06T10:07:43.163Z,98977.25
2023-03-06T10:10:50.850Z,98968.38
2023-03-06T10:14:00.986Z,98971.50
2023-03-06T10:17:03.721Z,98972.59
2023-03-06T10:20:22.240Z,98979.03
2023-03-06T10:23:54.473Z,98966.06
2023-03-06T10:27:23.470Z,98966.78
2023-03-06T10:30:39.707Z,98964.59
2023-03-06T10:33:51.606Z,98970.19
2023-03-06T10:36:53.072Z,98969.91
2023-03-06T10:40:08.584Z,98966.09
2023-03-06T10:43:12.400Z,98956.84
2023-03-06T10:46:27.395Z,98957.66
2023-03-06T10:49:37.351Z,98955.69
2023-03-06T10:52:38.797Z,98959.00
2023-03-06T10:55:40.368Z,98961.44
2023-03-06T10:58:41.810Z,98958.94
2023-03-06T11:01:49.455Z,98954.78
2023-03-06T11:04:54.880Z,98958.13
2023-03-06T11:08:01.766Z,98950.78
2023-03-06T11:11:03.321Z,98960.06
2023-03-06T11:14:15.276Z,98963.75
2023-03-06T11:17:32.037Z,98953.78
2023-03-06T11:20:52.013Z,98950.56
2023-03-06T11:23:57.576Z,98939.81
2023-03-06T11:27:05.766Z,98945.84
2023-03-06T11:30:19.039Z,98940.84
2023-03-06T11:33:31.729Z,98933.00
2023-03-06T11:36:59.130Z,98939.16
2023-03-06T11:40:43.381Z,98940.13
2023-03-06T11:44:00.743Z,98935.66
2023-03-06T11:47:15.295Z,98934.34
2023-03-06T11:50:31.519Z,98926.75
2023-03-06T11:53:39.344Z,98928.34
2023-03-06T11:56:49.726Z,98926.19
2023-03-06T12:00:16.991Z,98922.75
2023-03-06T12:03:45.705Z,98917.28
2023-03-06T12:07:07.648Z,98919.81
2023-03-06T12:10:29.929Z,98920.09
2023-03-06T12:13:57.133Z,98915.31
2023-03-06T12:17:30.500Z,98908.94
2023-03-06T12:20:42.501Z,98911.03
2023-03-06T12:23:50.098Z,98908.53
2023-03-06T12:27:17.930Z,98905.13
2023-03-06T12:31:02.316Z,98894.72
2023-03-06T12:34:15.556Z,98897.75
2023-03-06T12:37:35.541Z,98886.91
2023-03-06T12:41:04.426Z,98885.16
2023-03-06T12:44:16.929Z,98880.88
2023-03-06T12:47:20.946Z,98882.66
2023-03-06T12:50:28.726Z,98883.31
2023-03-06T12:53:32.014Z,98881.34
2023-03-06T12:56:35.294Z,98884.22
2023-03-06T12:59:48.002Z,98888.56
2023-03-06T13:03:15.060Z,98879.13
2023-03-06T13:06:34.227Z,98884.50
2023-03-06T13:10:08.554Z,98893.25
2023-03-06T13:13:42.689Z,98880.72
2023-03-06T13:16:44.306Z,98890.50
2023-03-06T13:19:46.235Z,98884.81
2023-03-06T13:22:47.944Z,98882.72
2023-03-06T13:25:50.521Z,98894.88
2023-03-06T13:28:57.809Z,98893.91
2023-03-06T13:32:02.400Z,98890.63
2023-03-06T13:35:47.390Z,98896.13
2023-03-06T13:38:48.751Z,98884.50
2023-03-06T13:42:00.766Z,98884.50
2023-03-06T13:45:25.731Z,98877.50
2023-03-06T13:48:44.631Z,98885.16
2023-03-06T13:52:06.188Z,98883.53
2023-03-06T13:55:29.583Z,98883.53
2023-03-06T13:58:49.072Z,98878.63
2023-03-06T14:02:12.504Z,98883.13
2023-03-06T14:05:15.685Z,98878.75
2023-03-06T14:08:37.453Z,98879.16
2023-03-06T14:11:45.775Z,98876.16
2023-03-06T14:14:57.660Z,98875.41
2023-03-06T14:18:01.014Z,98880.13
2023-03-06T14:21:13.161Z,98869.47
2023-03-06T14:24:20.068Z,98881.34
2023-03-06T14:27:38.453Z,98876.41
2023-03-06T14:30:49.821Z,98877.09
2023-03-06T14:33:56.802Z,98864.41
2023-03-06T14:37:01.648Z,98869.44
2023-03-06T14:40:10.842Z,98870.34
2023-03-06T14:43:22.723Z,98860.38
2023-03-06T14:46:24.174Z,98867.91
2023-03-06T14:49:26.858Z,98860.91
2023-03-06T14:52:28.572Z,98852.88
2023-03-06T14:55:32.172Z,98856.41
2023-03-06T14:58:40.898Z,98848.50
2023-03-06T15:01:46.177Z,98854.19
2023-03-06T15:04:53.169Z,98845.69
2023-03-06T15:08:00.140Z,98846.13
2023-03-06T15:11:05.333Z,98841.97
2023-03-06T15:14:18.418Z,98842.19
2023-03-06T15:17:19.856Z,98849.19
2023-03-06T15:20:41.935Z,98841.19
2023-03-06T15:23:45.658Z,98838.28
2023-03-06T15:26:54.504Z,98845.47
2023-03-06T15:29:59.638Z,98842.78
2023-03-06T15:33:19.533Z,98845.63
2023-03-06T15:36:29.484Z,98839.16
2023-03-06T15:39:39.887Z,98841.72
2023-03-06T15:42:42.440Z,98843.63
2023-03-06T15:45:43.840Z,98841.94
2023-03-06T15:48:53.514Z,98836.13
2023-03-06T15:51:54.972Z,98835.84
2023-03-06T15:54:56.385Z,98841.38
2023-03-06T15:58:00.900Z,98839.25
2023-03-06T16:01:03.645Z,98842.16
2023-03-06T16:04:05.243Z,98848.06
2023-03-06T16:07:06.668Z,98841.88
2023-03-06T16:10:17.223Z,98842.97
2023-03-06T16:13:26.923Z,98838.22
2023-03-06T16:16:37.736Z,98847.03
2023-03-06T16:19:39.865Z,98847.16
2023-03-06T16:22:41.346Z,98847.41
2023-03-06T16:25:48.477Z,98848.50
2023-03-06T16:28:50.055Z,98850.00
2023-03-06T16:31:51.953Z,98853.56
2023-03-06T16:34:53.341Z,98859.44
2023-03-06T16:37:54.760Z,98851.41
2023-03-06T16:40:56.184Z,98851.41
2023-03-06T16:43:57.631Z,98857.00
2023-03-06T16:47:00.792Z,98857.56
2023-03-06T16:50:03.343Z,98857.59
2023-03-06T16:53:05.366Z,98869.34
2023-03-06T16:56:09.372Z,98865.22
2023-03-06T16:59:12.176Z,98860.97
2023-03-06T17:02:13.642Z,98871.91
2023-03-06T17:05:15.099Z,98876.00
2023-03-06T17:08:16.546Z,98876.41
2023-03-06T17:11:20.202Z,98882.19
2023-03-06T17:14:21.773Z,98882.44
2023-03-06T17:17:23.189Z,98884.78
2023-03-06T17:20:24.843Z,98883.25
2023-03-06T17:23:29.588Z,98894.59
2023-03-06T17:26:31.290Z,98889.41
2023-03-06T17:29:32.865Z,98892.56
2023-03-06T17:32:34.401Z,98896.78
2023-03-06T17:35:36.699Z,98904.44
2023-03-06T17:38:38.238Z,98896.09
2023-03-06T17:41:39.726Z,98901.97
2023-03-06T17:44:41.444Z,98901.16
2023-03-06T17:47:43.017Z,98901.41
2023-03-06T17:50:52.727Z,98909.28
2023-03-06T17:53:55.509Z,98903.16
2023-03-06T17:57:03.234Z,98901.34
2023-03-06T18:00:05.821Z,98907.22
2023-03-06T18:03:13.545Z,98908.44
2023-03-06T18:06:16.064Z,98911.06
2023-03-06T18:09:17.578Z,98904.09
2023-03-06T18:12:19.062Z,98918.63
2023-03-06T18:15:20.497Z,98915.88
2023-03-06T18:18:22.022Z,98915.34
2023-03-06T18:21:24.030Z,98913.75
2023-03-06T18:24:25.570Z,98906.25
2023-03-06T18:27:27.119Z,98908.03
2023-03-06T18:30:28.727Z,98904.22
2023-03-06T18:33:30.150Z,98906.94
2023-03-06T18:36:33.627Z,98907.50
2023-03-06T18:39:35.173Z,98906.13
2023-03-06T18:42:36.743Z,98913.00
2023-03-06T18:45:38.200Z,98906.47
2023-03-06T18:48:39.861Z,98908.19
2023-03-06T18:51:42.636Z,98912.16
2023-03-06T18:54:44.873Z,98918.44
2023-03-06T18:57:46.311Z,98910.63
2023-03-06T19:00:48.462Z,98915.97
2023-03-06T19:03:50.121Z,98915.81
2023-03-06T19:06:51.742Z,98914.84
2023-03-06T19:09:53.165Z,98915.69
2023-03-06T19:12:54.584Z,98912.97
2023-03-06T19:15:57.066Z,98907.50
2023-03-06T19:18:59.125Z,98909.13
2023-03-06T19:22:00.535Z,98908.22
2023-03-06T19:25:03.838Z,98906.47
2023-03-06T19:28:05.847Z,98910.91
2023-03-06T19:31:09.276Z,98908.81
2023-03-06T19:34:10.776Z,98903.19
2023-03-06T19:37:12.238Z,98899.13
2023-03-06T19:40:13.858Z,98896.81
2023-03-06T19:43:15.306Z,98897.22
2023-03-06T19:46:16.965Z,98894.78
2023-03-06T19:49:21.632Z,98898.19
2023-03-06T19:52:24.583Z,98895.31
2023-03-06T19:55:28.469Z,98894.09
2023-03-06T19:58:29.949Z,98893.00
2023-03-06T20:01:31.382Z,98879.06
2023-03-06T20:04:34.080Z,98883.16
2023-03-06T20:07:35.528Z,98880.91
2023-03-06T20:10:37.055Z,98888.34
2023-03-06T20:13:44.604Z,98881.00
2023-03-06T20:16:48.615Z,98876.75
2023-03-06T20:19:50.042Z,98876.59
2023-03-06T20:22:51.484Z,98881.50
2023-03-06T20:25:52.916Z,98875.56
2023-03-06T20:28:54.788Z,98868.44
2023-03-06T20:31:57.707Z,98873.63
2023-03-06T20:34:59.268Z,98868.00
2023-03-06T20:38:00.680Z,98859.56
2023-03-06T20:41:03.004Z,98866.50
2023-03-06T20:44:06.141Z,98865.13
2023-03-06T20:47:08.845Z,98868.00
2023-03-06T20:50:10.949Z,98870.31
2023-03-06T20:53:12.361Z,98870.84
2023-03-06T20:56:16.149Z,98867.53
2023-03-06T20:59:18.142Z,98862.66
2023-03-06T21:02:19.674Z,98872.03
2023-03-06T21:05:21.121Z,98870.84
2023-03-06T21:08:23.128Z,98866.75
2023-03-06T21:11:25.424Z,98862.38
2023-03-06T21:14:26.842Z,98870.59
2023-03-06T21:17:30.070Z,98863.50
2023-03-06T21:20:32.328Z,98863.63
2023-03-06T21:23:33.870Z,98849.84
2023-03-06T21:26:35.482Z,98848.56
2023-03-06T21:29:36.899Z,98842.59
2023-03-06T21:32:38.348Z,98847.75
2023-03-06T21:35:41.479Z,98850.91
2023-03-06T21:38:42.924Z,98846.00
2023-03-06T21:41:44.380Z,98842.16
2023-03-06T21:44:45.920Z,98846.69
2023-03-06T21:47:50.501Z,98840.56
2023-03-06T21:50:52.075Z,98847.25
2023-03-06T21:53:54.904Z,98840.28
2023-03-06T21:56:56.855Z,98838.91
2023-03-06T21:59:58.235Z,98823.66
2023-03-06T22:02:59.746Z,98820.66
2023-03-06T22:06:28.103Z,98826.66
2023-03-06T22:09:29.773Z,98828.72
2023-03-06T22:12:34.072Z,98825.28
2023-03-06T22:15:35.548Z,98825.16
2023-03-06T22:18:38.659Z,98826.41
2023-03-06T22:21:40.129Z,98832.25
2023-03-06T22:24:41.652Z,98836.50
2023-03-06T22:27:43.145Z,98829.19
2023-03-06T22:30:45.745Z,98836.69
2023-03-06T22:33:51.278Z,98838.31
2023-03-06T22:36:52.921Z,98831.78
2023-03-06T22:39:54.577Z,98837.53
2023-03-06T22:42:56.103Z,98835.41
2023-03-06T22:46:02.159Z,98830.22
2023-03-06T22:49:03.677Z,98825.97
2023-03-06T22:52:05.312Z,98827.72
2023-03-06T22:55:07.040Z,98818.19
2023-03-06T22:58:08.465Z,98810.81
2023-03-06T23:01:25.143Z,98810.81
2023-03-06T23:04:26.729Z,98815.38
2023-03-06T23:07:28.296Z,98815.69
2023-03-06T23:10:39.399Z,98804.50
2023-03-06T23:13:59.362Z,98798.66
2023-03-06T23:17:19.524Z,98789.47
2023-03-06T23:20:43.515Z,98792.31
2023-03-06T23:24:04.422Z,98789.88
2023-03-06T23:27:05.854Z,98793.84
2023-03-06T23:30:09.298Z,98787.16
2023-03-06T23:33:10.978Z,98788.34
2023-03-06T23:36:14.508Z,98784.88
2023-03-06T23:39:16.695Z,98791.25
2023-03-06T23:42:19.111Z,98790.44
2023-03-06T23:45:20.578Z,98791.25
2023-03-06T23:48:22.432Z,98806.13
2023-03-06T23:51:23.996Z,98811.41
2023-03-06T23:54:25.440Z,98798.03
2023-03-06T23:57:26.846Z,98805.25
